Portada
METAR-TAF:

METAR-TAF

Aeropuertos :

Gibraltar, Gibraltar

Aeropuerto de Gibraltar

latitud: 36-09N, longitud: 005-21W, altitud: 5 m

Observación

El informe se hizo hace 48 minutos, a las 19:50 UTC
Viento 10 kt del suroeste con ráfagas de 22 kt
Temperatura 27°C
Humedad 54%
Presión 1014 hPa
Visibilidad 10 km o más
sin nubes por debajo de 1500 m y sin presencia de cumulonimbus.

METAR: LXGB 241950Z 22010G22KT CAVOK 27/17 Q1014 NOSIG

Hora: 22:38 (20:38 UTC)

Pronóstico

El informe se hizo hace 1 hora y 56 minutos, a las 18:42 UTC
Pronóstico válido del 24 a las 18 UTC al 24 a las 22 UTC
Viento 8 kt del oeste
Visibilidad 10 km o más
Escasas nubes a una altura de 2500 ft
Probabilidad 30% :
Temporalmente
del 24 a las 18 UTC al 24 a las 21 UTC
Viento 14 kt del sur-suroeste

TAF: LXGB 241842Z 2418/2422 26008KT 9999 FEW025 PROB30 TEMPO 2418/2421 21014KT 520001

Observaciones y pronósticos meteorológicos de más de 4000 aeropuertos (mensajes METAR y TAF).

Los puntos amarillos y rojos representan las estaciones disponibles.

Ponga el ratón en el punto deseado para ver el nombre de la estación.

Haga clic para ver las observaciones y los pronósticos meteorológicos.

Para cambiar el mapa : haga clic en los botones verdes con una cruz de color negro para hacer un zoom, en el botón verde con un guión para alejar o en las flechas verdes para mapas adyacentes.


METAR-TAF: